sensor_id;sensor_type;location;lat;lon;timestamp;pressure;altitude;pressure_sealevel;temperature;humidity
19236;BME280;9752;54.270;12.470;2022-10-16T00:02:19;101169.94;;;13.60;100.00
19236;BME280;9752;54.270;12.470;2022-10-16T00:07:21;101172.81;;;13.64;100.00
19236;BME280;9752;54.270;12.470;2022-10-16T00:12:24;101173.31;;;13.57;100.00
19236;BME280;9752;54.270;12.470;2022-10-16T00:17:26;101168.47;;;13.48;100.00
19236;BME280;9752;54.270;12.470;2022-10-16T00:22:28;101179.31;;;13.40;100.00
19236;BME280;9752;54.270;12.470;2022-10-16T00:27:31;101192.34;;;13.40;100.00
19236;BME280;9752;54.270;12.470;2022-10-16T00:32:33;101197.81;;;13.29;100.00
19236;BME280;9752;54.270;12.470;2022-10-16T00:37:34;101205.84;;;13.18;100.00
19236;BME280;9752;54.270;12.470;2022-10-16T00:42:38;101200.19;;;13.10;100.00
19236;BME280;9752;54.270;12.470;2022-10-16T00:47:41;101221.91;;;13.11;100.00
19236;BME280;9752;54.270;12.470;2022-10-16T00:52:46;101232.09;;;13.06;100.00
19236;BME280;9752;54.270;12.470;2022-10-16T00:57:51;101241.13;;;13.13;100.00
19236;BME280;9752;54.270;12.470;2022-10-16T01:02:55;101244.47;;;13.10;100.00
19236;BME280;9752;54.270;12.470;2022-10-16T01:08:04;101257.50;;;13.10;100.00
19236;BME280;9752;54.270;12.470;2022-10-16T01:13:13;101277.00;;;13.17;100.00
19236;BME280;9752;54.270;12.470;2022-10-16T01:18:23;101283.00;;;13.16;100.00
19236;BME280;9752;54.270;12.470;2022-10-16T01:23:38;101299.69;;;13.19;100.00
19236;BME280;9752;54.270;12.470;2022-10-16T01:28:49;101293.75;;;13.07;100.00
19236;BME280;9752;54.270;12.470;2022-10-16T01:33:56;101293.72;;;13.05;100.00
19236;BME280;9752;54.270;12.470;2022-10-16T01:39:01;101307.81;;;12.94;100.00
19236;BME280;9752;54.270;12.470;2022-10-16T01:44:07;101310.50;;;12.81;100.00
19236;BME280;9752;54.270;12.470;2022-10-16T01:49:11;101315.69;;;12.66;100.00
19236;BME280;9752;54.270;12.470;2022-10-16T01:54:14;101322.50;;;12.64;100.00
19236;BME280;9752;54.270;12.470;2022-10-16T01:59:21;101323.75;;;12.70;100.00
19236;BME280;9752;54.270;12.470;2022-10-16T02:04:29;101327.16;;;12.69;100.00
19236;BME280;9752;54.270;12.470;2022-10-16T02:09:33;101338.13;;;12.64;100.00
19236;BME280;9752;54.270;12.470;2022-10-16T02:14:39;101343.03;;;12.59;100.00
19236;BME280;9752;54.270;12.470;2022-10-16T02:19:41;101358.88;;;12.49;100.00
19236;BME280;9752;54.270;12.470;2022-10-16T02:24:51;101359.41;;;12.43;100.00
19236;BME280;9752;54.270;12.470;2022-10-16T02:29:59;101358.31;;;12.40;100.00
19236;BME280;9752;54.270;12.470;2022-10-16T02:35:08;101355.44;;;12.35;100.00
19236;BME280;9752;54.270;12.470;2022-10-16T02:40:11;101348.84;;;12.27;100.00
19236;BME280;9752;54.270;12.470;2022-10-16T02:45:14;101345.09;;;12.22;100.00
19236;BME280;9752;54.270;12.470;2022-10-16T02:50:16;101356.84;;;12.30;100.00
19236;BME280;9752;54.270;12.470;2022-10-16T02:55:18;101361.44;;;12.34;100.00
19236;BME280;9752;54.270;12.470;2022-10-16T03:00:21;101368.97;;;12.29;100.00
19236;BME280;9752;54.270;12.470;2022-10-16T03:05:23;101375.69;;;12.26;100.00
19236;BME280;9752;54.270;12.470;2022-10-16T03:10:24;101369.91;;;12.17;100.00
19236;BME280;9752;54.270;12.470;2022-10-16T03:15:28;101374.41;;;12.06;100.00
19236;BME280;9752;54.270;12.470;2022-10-16T03:20:29;101376.00;;;12.04;100.00
19236;BME280;9752;54.270;12.470;2022-10-16T03:25:31;101390.25;;;11.96;100.00
19236;BME280;9752;54.270;12.470;2022-10-16T03:30:34;101402.25;;;11.94;100.00
19236;BME280;9752;54.270;12.470;2022-10-16T03:35:36;101403.31;;;11.84;100.00
19236;BME280;9752;54.270;12.470;2022-10-16T03:40:37;101407.09;;;11.89;100.00
19236;BME280;9752;54.270;12.470;2022-10-16T03:45:40;101418.72;;;11.94;100.00
19236;BME280;9752;54.270;12.470;2022-10-16T03:50:42;101423.72;;;11.91;100.00
19236;BME280;9752;54.270;12.470;2022-10-16T03:55:44;101429.81;;;11.78;100.00
19236;BME280;9752;54.270;12.470;2022-10-16T04:00:47;101436.50;;;11.75;100.00
19236;BME280;9752;54.270;12.470;2022-10-16T04:05:49;101427.28;;;11.66;100.00
19236;BME280;9752;54.270;12.470;2022-10-16T04:10:51;101419.91;;;11.59;100.00
19236;BME280;9752;54.270;12.470;2022-10-16T04:15:54;101430.78;;;11.53;100.00
19236;BME280;9752;54.270;12.470;2022-10-16T04:20:56;101439.66;;;11.44;100.00
19236;BME280;9752;54.270;12.470;2022-10-16T04:25:57;101444.25;;;11.35;100.00
19236;BME280;9752;54.270;12.470;2022-10-16T04:31:03;101449.00;;;11.28;100.00
19236;BME280;9752;54.270;12.470;2022-10-16T04:36:05;101459.59;;;11.31;100.00
19236;BME280;9752;54.270;12.470;2022-10-16T04:41:07;101472.78;;;11.21;100.00
19236;BME280;9752;54.270;12.470;2022-10-16T04:46:10;101471.34;;;11.13;100.00
19236;BME280;9752;54.270;12.470;2022-10-16T04:51:12;101466.91;;;10.99;100.00
19236;BME280;9752;54.270;12.470;2022-10-16T04:56:13;101470.91;;;10.82;100.00
19236;BME280;9752;54.270;12.470;2022-10-16T05:01:17;101473.31;;;10.67;100.00
19236;BME280;9752;54.270;12.470;2022-10-16T05:06:18;101474.34;;;10.69;100.00
19236;BME280;9752;54.270;12.470;2022-10-16T05:11:20;101487.19;;;10.67;100.00
19236;BME280;9752;54.270;12.470;2022-10-16T05:16:23;101490.78;;;10.69;100.00
19236;BME280;9752;54.270;12.470;2022-10-16T05:21:25;101495.56;;;10.63;100.00
19236;BME280;9752;54.270;12.470;2022-10-16T05:26:27;101505.25;;;10.66;100.00
19236;BME280;9752;54.270;12.470;2022-10-16T05:31:30;101517.56;;;10.68;100.00
19236;BME280;9752;54.270;12.470;2022-10-16T05:36:31;101531.75;;;10.62;100.00
19236;BME280;9752;54.270;12.470;2022-10-16T05:41:33;101535.72;;;10.68;100.00
19236;BME280;9752;54.270;12.470;2022-10-16T05:46:36;101536.19;;;10.63;100.00
19236;BME280;9752;54.270;12.470;2022-10-16T05:51:38;101553.75;;;10.67;100.00
19236;BME280;9752;54.270;12.470;2022-10-16T05:56:40;101553.16;;;10.83;100.00
19236;BME280;9752;54.270;12.470;2022-10-16T06:01:43;101559.13;;;10.93;100.00
19236;BME280;9752;54.270;12.470;2022-10-16T06:06:45;101567.13;;;10.97;100.00
19236;BME280;9752;54.270;12.470;2022-10-16T06:11:46;101584.25;;;10.94;100.00
19236;BME280;9752;54.270;12.470;2022-10-16T06:16:49;101585.31;;;10.97;100.00
19236;BME280;9752;54.270;12.470;2022-10-16T06:21:51;101592.63;;;11.02;100.00
19236;BME280;9752;54.270;12.470;2022-10-16T06:26:53;101605.34;;;11.11;100.00
19236;BME280;9752;54.270;12.470;2022-10-16T06:31:56;101595.97;;;11.13;100.00
19236;BME280;9752;54.270;12.470;2022-10-16T06:36:57;101607.91;;;11.23;100.00
19236;BME280;9752;54.270;12.470;2022-10-16T06:41:59;101613.44;;;11.27;100.00
19236;BME280;9752;54.270;12.470;2022-10-16T06:47:08;101614.50;;;11.43;100.00
19236;BME280;9752;54.270;12.470;2022-10-16T06:52:10;101599.34;;;11.49;100.00
19236;BME280;9752;54.270;12.470;2022-10-16T06:57:12;101582.56;;;11.57;100.00
19236;BME280;9752;54.270;12.470;2022-10-16T07:02:15;101593.41;;;11.63;100.00
19236;BME280;9752;54.270;12.470;2022-10-16T07:07:16;101588.41;;;11.66;100.00
19236;BME280;9752;54.270;12.470;2022-10-16T07:12:18;101580.63;;;11.80;100.00
19236;BME280;9752;54.270;12.470;2022-10-16T07:17:21;101577.31;;;11.94;100.00
19236;BME280;9752;54.270;12.470;2022-10-16T07:22:23;101565.94;;;12.05;100.00
19236;BME280;9752;54.270;12.470;2022-10-16T07:27:25;101569.34;;;12.18;100.00
19236;BME280;9752;54.270;12.470;2022-10-16T07:32:28;101560.16;;;12.36;100.00
19236;BME280;9752;54.270;12.470;2022-10-16T07:37:29;101539.47;;;12.79;100.00
19236;BME280;9752;54.270;12.470;2022-10-16T07:42:32;101514.28;;;13.50;100.00
19236;BME280;9752;54.270;12.470;2022-10-16T07:47:35;101489.28;;;14.13;100.00
19236;BME280;9752;54.270;12.470;2022-10-16T07:52:37;101457.81;;;14.10;100.00
19236;BME280;9752;54.270;12.470;2022-10-16T07:57:38;101427.25;;;14.23;100.00
19236;BME280;9752;54.270;12.470;2022-10-16T08:02:41;101399.94;;;14.64;100.00
19236;BME280;9752;54.270;12.470;2022-10-16T08:07:48;101360.22;;;14.70;100.00
19236;BME280;9752;54.270;12.470;2022-10-16T08:12:49;101354.63;;;14.80;100.00
19236;BME280;9752;54.270;12.470;2022-10-16T08:17:58;101346.59;;;15.10;100.00
19236;BME280;9752;54.270;12.470;2022-10-16T08:23:00;101325.59;;;14.74;100.00
19236;BME280;9752;54.270;12.470;2022-10-16T08:28:03;101328.59;;;14.49;100.00
19236;BME280;9752;54.270;12.470;2022-10-16T08:33:07;101321.91;;;14.38;100.00
19236;BME280;9752;54.270;12.470;2022-10-16T08:38:09;101318.56;;;14.24;100.00
19236;BME280;9752;54.270;12.470;2022-10-16T08:43:28;101310.66;;;14.39;100.00
19236;BME280;9752;54.270;12.470;2022-10-16T08:48:41;101311.56;;;14.56;100.00
19236;BME280;9752;54.270;12.470;2022-10-16T08:53:49;101311.41;;;14.69;100.00
19236;BME280;9752;54.270;12.470;2022-10-16T08:58:54;101322.03;;;14.72;100.00
19236;BME280;9752;54.270;12.470;2022-10-16T09:04:18;101325.25;;;14.68;100.00
19236;BME280;9752;54.270;12.470;2022-10-16T09:09:35;101324.84;;;14.77;100.00
19236;BME280;9752;54.270;12.470;2022-10-16T09:14:52;101318.88;;;14.79;100.00
19236;BME280;9752;54.270;12.470;2022-10-16T09:20:09;101333.03;;;14.67;100.00
19236;BME280;9752;54.270;12.470;2022-10-16T09:25:17;101323.00;;;14.58;100.00
19236;BME280;9752;54.270;12.470;2022-10-16T09:30:21;101324.28;;;14.50;100.00
19236;BME280;9752;54.270;12.470;2022-10-16T09:35:31;101327.22;;;14.39;100.00
19236;BME280;9752;54.270;12.470;2022-10-16T09:40:36;101336.28;;;14.62;100.00
19236;BME280;9752;54.270;12.470;2022-10-16T09:45:38;101326.44;;;15.26;100.00
19236;BME280;9752;54.270;12.470;2022-10-16T09:50:41;101327.78;;;15.53;100.00
19236;BME280;9752;54.270;12.470;2022-10-16T09:55:52;101326.16;;;15.37;100.00
19236;BME280;9752;54.270;12.470;2022-10-16T10:00:54;101326.75;;;15.68;100.00
19236;BME280;9752;54.270;12.470;2022-10-16T10:05:57;101326.28;;;15.94;100.00
19236;BME280;9752;54.270;12.470;2022-10-16T10:10:59;101307.03;;;16.12;100.00
19236;BME280;9752;54.270;12.470;2022-10-16T10:16:01;101303.59;;;16.32;100.00
19236;BME280;9752;54.270;12.470;2022-10-16T10:21:04;101301.19;;;16.56;100.00
19236;BME280;9752;54.270;12.470;2022-10-16T10:26:09;101311.56;;;16.74;100.00
19236;BME280;9752;54.270;12.470;2022-10-16T10:31:20;101306.19;;;16.91;100.00
19236;BME280;9752;54.270;12.470;2022-10-16T10:36:32;101298.88;;;16.84;100.00
19236;BME280;9752;54.270;12.470;2022-10-16T10:41:56;101314.06;;;17.12;100.00
19236;BME280;9752;54.270;12.470;2022-10-16T10:47:07;101315.50;;;17.26;100.00
19236;BME280;9752;54.270;12.470;2022-10-16T10:52:28;101300.56;;;17.24;100.00
19236;BME280;9752;54.270;12.470;2022-10-16T10:57:39;101303.59;;;17.55;100.00
19236;BME280;9752;54.270;12.470;2022-10-16T11:02:48;101313.84;;;17.49;100.00
19236;BME280;9752;54.270;12.470;2022-10-16T11:07:57;101308.63;;;17.51;100.00
19236;BME280;9752;54.270;12.470;2022-10-16T11:13:06;101309.28;;;17.45;100.00
19236;BME280;9752;54.270;12.470;2022-10-16T11:18:16;101307.16;;;17.58;100.00
19236;BME280;9752;54.270;12.470;2022-10-16T11:23:26;101308.19;;;17.61;100.00
19236;BME280;9752;54.270;12.470;2022-10-16T11:28:33;101318.63;;;17.60;100.00
19236;BME280;9752;54.270;12.470;2022-10-16T11:33:39;101320.06;;;17.74;100.00
19236;BME280;9752;54.270;12.470;2022-10-16T11:38:50;101320.75;;;17.70;100.00
19236;BME280;9752;54.270;12.470;2022-10-16T11:44:05;101321.69;;;17.70;100.00
19236;BME280;9752;54.270;12.470;2022-10-16T11:49:12;101317.50;;;17.97;100.00
19236;BME280;9752;54.270;12.470;2022-10-16T11:54:22;101314.19;;;18.02;100.00
19236;BME280;9752;54.270;12.470;2022-10-16T11:59:33;101318.47;;;18.00;100.00
19236;BME280;9752;54.270;12.470;2022-10-16T12:04:42;101299.44;;;18.06;100.00
19236;BME280;9752;54.270;12.470;2022-10-16T12:09:48;101307.44;;;18.09;100.00
19236;BME280;9752;54.270;12.470;2022-10-16T12:15:00;101318.28;;;18.18;100.00
19236;BME280;9752;54.270;12.470;2022-10-16T12:20:20;101311.13;;;18.14;100.00
19236;BME280;9752;54.270;12.470;2022-10-16T12:25:27;101321.69;;;18.40;100.00
19236;BME280;9752;54.270;12.470;2022-10-16T12:30:32;101330.50;;;18.40;100.00
19236;BME280;9752;54.270;12.470;2022-10-16T12:35:35;101342.63;;;18.37;100.00
19236;BME280;9752;54.270;12.470;2022-10-16T12:40:55;101353.06;;;18.35;100.00
19236;BME280;9752;54.270;12.470;2022-10-16T12:46:04;101366.25;;;18.37;100.00
19236;BME280;9752;54.270;12.470;2022-10-16T12:51:10;101359.03;;;18.55;100.00
19236;BME280;9752;54.270;12.470;2022-10-16T12:56:20;101381.03;;;18.81;100.00
19236;BME280;9752;54.270;12.470;2022-10-16T13:01:37;101395.66;;;18.50;100.00
19236;BME280;9752;54.270;12.470;2022-10-16T13:06:48;101395.84;;;17.87;100.00
19236;BME280;9752;54.270;12.470;2022-10-16T13:12:09;101413.28;;;17.85;100.00
19236;BME280;9752;54.270;12.470;2022-10-16T13:17:20;101415.31;;;18.38;100.00
19236;BME280;9752;54.270;12.470;2022-10-16T13:22:29;101413.13;;;18.72;100.00
19236;BME280;9752;54.270;12.470;2022-10-16T13:27:40;101426.47;;;18.09;100.00
19236;BME280;9752;54.270;12.470;2022-10-16T13:32:46;101429.16;;;18.11;100.00
19236;BME280;9752;54.270;12.470;2022-10-16T13:37:49;101434.06;;;18.24;100.00
19236;BME280;9752;54.270;12.470;2022-10-16T13:42:53;101440.66;;;17.92;100.00
19236;BME280;9752;54.270;12.470;2022-10-16T13:48:02;101461.84;;;17.35;100.00
19236;BME280;9752;54.270;12.470;2022-10-16T13:53:05;101458.59;;;17.00;100.00
19236;BME280;9752;54.270;12.470;2022-10-16T13:58:12;101474.66;;;16.70;100.00
19236;BME280;9752;54.270;12.470;2022-10-16T14:03:15;101490.00;;;16.43;100.00
19236;BME280;9752;54.270;12.470;2022-10-16T14:08:17;101490.53;;;16.36;100.00
19236;BME280;9752;54.270;12.470;2022-10-16T14:13:29;101502.03;;;16.39;100.00
19236;BME280;9752;54.270;12.470;2022-10-16T14:18:32;101512.72;;;16.62;100.00
19236;BME280;9752;54.270;12.470;2022-10-16T14:23:36;101525.84;;;16.82;100.00
19236;BME280;9752;54.270;12.470;2022-10-16T14:28:41;101526.44;;;16.76;100.00
19236;BME280;9752;54.270;12.470;2022-10-16T14:33:43;101535.06;;;16.73;100.00
19236;BME280;9752;54.270;12.470;2022-10-16T14:38:49;101535.00;;;16.54;100.00
19236;BME280;9752;54.270;12.470;2022-10-16T14:43:53;101548.94;;;16.35;100.00
19236;BME280;9752;54.270;12.470;2022-10-16T14:49:00;101546.75;;;16.08;100.00
19236;BME280;9752;54.270;12.470;2022-10-16T14:54:02;101566.53;;;15.85;100.00
19236;BME280;9752;54.270;12.470;2022-10-16T14:59:16;101562.19;;;15.86;100.00
19236;BME280;9752;54.270;12.470;2022-10-16T15:04:19;101580.44;;;15.84;100.00
19236;BME280;9752;54.270;12.470;2022-10-16T15:09:20;101586.34;;;16.14;100.00
19236;BME280;9752;54.270;12.470;2022-10-16T15:14:23;101603.81;;;15.97;100.00
19236;BME280;9752;54.270;12.470;2022-10-16T15:19:25;101609.06;;;15.81;100.00
19236;BME280;9752;54.270;12.470;2022-10-16T15:24:27;101606.41;;;16.68;100.00
19236;BME280;9752;54.270;12.470;2022-10-16T15:29:30;101600.53;;;17.09;100.00
19236;BME280;9752;54.270;12.470;2022-10-16T15:34:31;101620.31;;;16.49;100.00
19236;BME280;9752;54.270;12.470;2022-10-16T15:39:33;101627.91;;;15.59;100.00
19236;BME280;9752;54.270;12.470;2022-10-16T15:44:36;101641.34;;;15.17;100.00
19236;BME280;9752;54.270;12.470;2022-10-16T15:49:38;101649.88;;;14.98;100.00
19236;BME280;9752;54.270;12.470;2022-10-16T15:54:40;101664.34;;;14.77;100.00
19236;BME280;9752;54.270;12.470;2022-10-16T15:59:43;101684.09;;;14.57;100.00
19236;BME280;9752;54.270;12.470;2022-10-16T16:04:44;101687.75;;;14.31;100.00
19236;BME280;9752;54.270;12.470;2022-10-16T16:09:46;101696.16;;;13.97;100.00
19236;BME280;9752;54.270;12.470;2022-10-16T16:14:49;101720.91;;;13.47;100.00
19236;BME280;9752;54.270;12.470;2022-10-16T16:19:51;101729.53;;;13.33;100.00
19236;BME280;9752;54.270;12.470;2022-10-16T16:24:53;101724.81;;;12.74;100.00
19236;BME280;9752;54.270;12.470;2022-10-16T16:29:56;101738.28;;;12.41;100.00
19236;BME280;9752;54.270;12.470;2022-10-16T16:34:58;101759.84;;;12.52;100.00
19236;BME280;9752;54.270;12.470;2022-10-16T16:39:59;101775.91;;;12.85;100.00
19236;BME280;9752;54.270;12.470;2022-10-16T16:45:03;101784.38;;;12.82;100.00
19236;BME280;9752;54.270;12.470;2022-10-16T16:50:05;101791.19;;;12.80;100.00
19236;BME280;9752;54.270;12.470;2022-10-16T16:55:08;101805.63;;;12.75;100.00
19236;BME280;9752;54.270;12.470;2022-10-16T17:00:12;101821.38;;;12.52;100.00
19236;BME280;9752;54.270;12.470;2022-10-16T17:05:14;101832.72;;;12.15;100.00
19236;BME280;9752;54.270;12.470;2022-10-16T17:10:16;101843.81;;;11.89;100.00
19236;BME280;9752;54.270;12.470;2022-10-16T17:15:19;101851.00;;;11.91;100.00
19236;BME280;9752;54.270;12.470;2022-10-16T17:20:20;101863.06;;;11.79;100.00
19236;BME280;9752;54.270;12.470;2022-10-16T17:25:22;101869.50;;;11.61;100.00
19236;BME280;9752;54.270;12.470;2022-10-16T17:30:25;101887.50;;;11.69;100.00
19236;BME280;9752;54.270;12.470;2022-10-16T17:35:27;101897.56;;;11.65;100.00
19236;BME280;9752;54.270;12.470;2022-10-16T17:40:29;101908.38;;;11.47;100.00
19236;BME280;9752;54.270;12.470;2022-10-16T17:45:36;101923.41;;;11.40;100.00
19236;BME280;9752;54.270;12.470;2022-10-16T17:50:40;101928.59;;;11.28;100.00
19236;BME280;9752;54.270;12.470;2022-10-16T17:55:42;101943.53;;;10.97;100.00
19236;BME280;9752;54.270;12.470;2022-10-16T18:00:45;101939.34;;;10.65;100.00
19236;BME280;9752;54.270;12.470;2022-10-16T18:05:46;101952.84;;;10.39;100.00
19236;BME280;9752;54.270;12.470;2022-10-16T18:10:49;101954.06;;;10.22;100.00
19236;BME280;9752;54.270;12.470;2022-10-16T18:15:59;101964.78;;;9.94;100.00
19236;BME280;9752;54.270;12.470;2022-10-16T18:21:03;101968.06;;;9.81;100.00
19236;BME280;9752;54.270;12.470;2022-10-16T18:26:06;101981.97;;;9.61;100.00
19236;BME280;9752;54.270;12.470;2022-10-16T18:31:12;102009.16;;;9.46;100.00
19236;BME280;9752;54.270;12.470;2022-10-16T18:36:17;102017.44;;;9.31;100.00
19236;BME280;9752;54.270;12.470;2022-10-16T18:41:19;102047.38;;;9.28;100.00
19236;BME280;9752;54.270;12.470;2022-10-16T18:46:23;102055.63;;;9.24;100.00
19236;BME280;9752;54.270;12.470;2022-10-16T18:51:26;102068.81;;;9.06;100.00
19236;BME280;9752;54.270;12.470;2022-10-16T18:56:30;102088.22;;;9.01;100.00
19236;BME280;9752;54.270;12.470;2022-10-16T19:01:35;102093.50;;;9.03;100.00
19236;BME280;9752;54.270;12.470;2022-10-16T19:06:39;102111.31;;;8.89;100.00
19236;BME280;9752;54.270;12.470;2022-10-16T19:11:42;102117.50;;;8.81;100.00
19236;BME280;9752;54.270;12.470;2022-10-16T19:16:45;102131.13;;;8.89;100.00
19236;BME280;9752;54.270;12.470;2022-10-16T19:21:48;102140.94;;;8.83;100.00
19236;BME280;9752;54.270;12.470;2022-10-16T19:26:55;102161.72;;;8.74;100.00
19236;BME280;9752;54.270;12.470;2022-10-16T19:31:58;102148.84;;;8.84;100.00
19236;BME280;9752;54.270;12.470;2022-10-16T19:37:01;102167.44;;;8.80;100.00
19236;BME280;9752;54.270;12.470;2022-10-16T19:42:03;102182.56;;;8.75;100.00
19236;BME280;9752;54.270;12.470;2022-10-16T19:47:06;102208.22;;;8.64;100.00
19236;BME280;9752;54.270;12.470;2022-10-16T19:52:08;102219.06;;;8.59;100.00
19236;BME280;9752;54.270;12.470;2022-10-16T19:57:10;102244.22;;;8.71;100.00
19236;BME280;9752;54.270;12.470;2022-10-16T20:02:13;102240.50;;;8.77;100.00
19236;BME280;9752;54.270;12.470;2022-10-16T20:07:15;102248.31;;;8.50;100.00
19236;BME280;9752;54.270;12.470;2022-10-16T20:12:17;102259.69;;;8.33;100.00
19236;BME280;9752;54.270;12.470;2022-10-16T20:17:20;102266.19;;;8.38;100.00
19236;BME280;9752;54.270;12.470;2022-10-16T20:22:21;102273.28;;;8.49;100.00
19236;BME280;9752;54.270;12.470;2022-10-16T20:27:23;102288.25;;;8.34;100.00
19236;BME280;9752;54.270;12.470;2022-10-16T20:32:29;102294.47;;;8.36;100.00
19236;BME280;9752;54.270;12.470;2022-10-16T20:37:31;102303.03;;;8.27;100.00
19236;BME280;9752;54.270;12.470;2022-10-16T20:42:32;102311.03;;;8.19;100.00
19236;BME280;9752;54.270;12.470;2022-10-16T20:47:35;102327.84;;;7.97;100.00
19236;BME280;9752;54.270;12.470;2022-10-16T20:52:37;102336.81;;;7.92;100.00
19236;BME280;9752;54.270;12.470;2022-10-16T20:57:39;102337.47;;;7.80;100.00
19236;BME280;9752;54.270;12.470;2022-10-16T21:02:42;102340.84;;;7.62;100.00
19236;BME280;9752;54.270;12.470;2022-10-16T21:07:44;102336.94;;;7.39;100.00
19236;BME280;9752;54.270;12.470;2022-10-16T21:12:46;102344.41;;;7.36;100.00
19236;BME280;9752;54.270;12.470;2022-10-16T21:17:49;102360.66;;;7.27;100.00
19236;BME280;9752;54.270;12.470;2022-10-16T21:22:51;102366.72;;;7.27;100.00
19236;BME280;9752;54.270;12.470;2022-10-16T21:27:52;102358.84;;;7.34;100.00
19236;BME280;9752;54.270;12.470;2022-10-16T21:32:55;102361.53;;;7.45;100.00
19236;BME280;9752;54.270;12.470;2022-10-16T21:37:57;102372.16;;;7.56;100.00
19236;BME280;9752;54.270;12.470;2022-10-16T21:43:00;102379.47;;;7.34;100.00
19236;BME280;9752;54.270;12.470;2022-10-16T21:48:05;102397.97;;;7.30;100.00
19236;BME280;9752;54.270;12.470;2022-10-16T21:53:07;102407.88;;;7.34;100.00
19236;BME280;9752;54.270;12.470;2022-10-16T21:58:08;102407.41;;;7.30;100.00
19236;BME280;9752;54.270;12.470;2022-10-16T22:03:11;102412.28;;;7.27;100.00
19236;BME280;9752;54.270;12.470;2022-10-16T22:08:13;102420.47;;;7.31;100.00
19236;BME280;9752;54.270;12.470;2022-10-16T22:13:15;102424.72;;;7.31;100.00
19236;BME280;9752;54.270;12.470;2022-10-16T22:18:18;102427.88;;;7.28;100.00
19236;BME280;9752;54.270;12.470;2022-10-16T22:23:20;102445.03;;;7.19;100.00
19236;BME280;9752;54.270;12.470;2022-10-16T22:28:22;102427.72;;;7.00;100.00
19236;BME280;9752;54.270;12.470;2022-10-16T22:33:25;102448.16;;;6.90;100.00
19236;BME280;9752;54.270;12.470;2022-10-16T22:38:27;102450.13;;;6.84;100.00
19236;BME280;9752;54.270;12.470;2022-10-16T22:43:29;102454.06;;;6.80;100.00
19236;BME280;9752;54.270;12.470;2022-10-16T22:48:33;102464.88;;;6.94;100.00
19236;BME280;9752;54.270;12.470;2022-10-16T22:53:35;102461.50;;;6.86;100.00
19236;BME280;9752;54.270;12.470;2022-10-16T22:58:37;102461.50;;;6.86;100.00
19236;BME280;9752;54.270;12.470;2022-10-16T23:03:40;102468.97;;;6.83;100.00
19236;BME280;9752;54.270;12.470;2022-10-16T23:08:42;102471.97;;;6.79;100.00
19236;BME280;9752;54.270;12.470;2022-10-16T23:13:43;102476.06;;;6.77;100.00
19236;BME280;9752;54.270;12.470;2022-10-16T23:18:47;102504.75;;;6.80;100.00
19236;BME280;9752;54.270;12.470;2022-10-16T23:23:50;102513.44;;;6.89;100.00
19236;BME280;9752;54.270;12.470;2022-10-16T23:28:54;102496.56;;;6.84;100.00
19236;BME280;9752;54.270;12.470;2022-10-16T23:33:58;102493.19;;;6.76;100.00
19236;BME280;9752;54.270;12.470;2022-10-16T23:39:00;102499.44;;;6.78;100.00
19236;BME280;9752;54.270;12.470;2022-10-16T23:44:02;102516.13;;;6.82;100.00
19236;BME280;9752;54.270;12.470;2022-10-16T23:49:05;102517.75;;;6.64;100.00
19236;BME280;9752;54.270;12.470;2022-10-16T23:54:06;102524.78;;;6.49;100.00
19236;BME280;9752;54.270;12.470;2022-10-16T23:59:08;102536.28;;;6.44;100.00
